Terminal Aerodrome Forecast
Issued by NWS

Home | Current Version | Previous Version | Text Only | Print | Product List | Glossary On
Versions: 1 2 3 4 5 6 7 8 9 10 11 12 13 14 15
000
FTUS44 KCRP 251129
TAFALI
TAF
KALI 251129Z 2512/2612 13004KT P6SM SCT015
      TEMPO 2512/2514 5SM BR BKN015
     FM251400 13011KT P6SM VCSH SCT025 BKN040
     FM251800 12014KT P6SM VCSH BKN040
     FM252200 12014KT P6SM SCT040 SCT250
     FM260200 13008KT P6SM SCT020 BKN250
     FM260800 12006KT P6SM BKN015 BKN120 PROB30 2608/2612 5SM TSRA
      OVC012CB=

USA.gov is the U.S. government's official web portal to all federal, state and local government web resources and services.